sensor_id;sensor_type;location;lat;lon;timestamp;pressure;altitude;pressure_sealevel;temperature;humidity
53300;BME280;39187;48.476;8.310;2024-03-06T00:01:54;91173.81;;;2.79;100.00
53300;BME280;39187;48.476;8.310;2024-03-06T00:04:20;91166.69;;;2.83;100.00
53300;BME280;39187;48.476;8.310;2024-03-06T00:06:45;91177.59;;;2.85;100.00
53300;BME280;39187;48.476;8.310;2024-03-06T00:09:11;91168.56;;;2.82;100.00
53300;BME280;39187;48.476;8.310;2024-03-06T00:11:37;91175.38;;;2.91;100.00
53300;BME280;39187;48.476;8.310;2024-03-06T00:14:02;91170.13;;;2.91;100.00
53300;BME280;39187;48.476;8.310;2024-03-06T00:16:28;91168.59;;;2.90;100.00
53300;BME280;39187;48.476;8.310;2024-03-06T00:18:54;91165.63;;;2.95;100.00
53300;BME280;39187;48.476;8.310;2024-03-06T00:21:19;91159.66;;;2.98;100.00
53300;BME280;39187;48.476;8.310;2024-03-06T00:23:44;91167.19;;;2.99;100.00
53300;BME280;39187;48.476;8.310;2024-03-06T00:26:11;91163.75;;;2.95;100.00
53300;BME280;39187;48.476;8.310;2024-03-06T00:28:38;91160.75;;;2.97;100.00
53300;BME280;39187;48.476;8.310;2024-03-06T00:31:05;91161.16;;;2.99;100.00
53300;BME280;39187;48.476;8.310;2024-03-06T00:33:30;91158.53;;;2.99;100.00
53300;BME280;39187;48.476;8.310;2024-03-06T00:35:56;91158.84;;;2.87;100.00
53300;BME280;39187;48.476;8.310;2024-03-06T00:38:21;91161.13;;;2.95;100.00
53300;BME280;39187;48.476;8.310;2024-03-06T00:40:47;91163.38;;;2.93;100.00
53300;BME280;39187;48.476;8.310;2024-03-06T00:43:12;91162.59;;;2.89;100.00
53300;BME280;39187;48.476;8.310;2024-03-06T00:45:38;91149.03;;;2.83;100.00
53300;BME280;39187;48.476;8.310;2024-03-06T00:48:03;91161.09;;;2.88;100.00
53300;BME280;39187;48.476;8.310;2024-03-06T00:50:29;91156.88;;;2.76;100.00
53300;BME280;39187;48.476;8.310;2024-03-06T00:52:55;91161.81;;;2.81;100.00
53300;BME280;39187;48.476;8.310;2024-03-06T00:55:20;91162.19;;;2.83;100.00
53300;BME280;39187;48.476;8.310;2024-03-06T00:57:45;91162.41;;;2.61;100.00
53300;BME280;39187;48.476;8.310;2024-03-06T01:00:11;91166.09;;;2.53;100.00
53300;BME280;39187;48.476;8.310;2024-03-06T01:02:37;91166.41;;;2.44;100.00
53300;BME280;39187;48.476;8.310;2024-03-06T01:05:04;91170.13;;;2.39;100.00
53300;BME280;39187;48.476;8.310;2024-03-06T01:07:30;91174.34;;;2.51;100.00
53300;BME280;39187;48.476;8.310;2024-03-06T01:09:59;91179.66;;;2.55;100.00
53300;BME280;39187;48.476;8.310;2024-03-06T01:12:24;91181.44;;;2.47;100.00
53300;BME280;39187;48.476;8.310;2024-03-06T01:14:50;91181.16;;;2.56;100.00
53300;BME280;39187;48.476;8.310;2024-03-06T01:17:15;91182.63;;;2.53;100.00
53300;BME280;39187;48.476;8.310;2024-03-06T01:19:41;91187.13;;;2.53;100.00
53300;BME280;39187;48.476;8.310;2024-03-06T01:22:09;91190.91;;;2.59;100.00
53300;BME280;39187;48.476;8.310;2024-03-06T01:24:35;91186.03;;;2.57;100.00
53300;BME280;39187;48.476;8.310;2024-03-06T01:27:00;91185.31;;;2.60;100.00
53300;BME280;39187;48.476;8.310;2024-03-06T01:29:28;91195.84;;;2.64;100.00
53300;BME280;39187;48.476;8.310;2024-03-06T01:31:54;91196.59;;;2.64;100.00
53300;BME280;39187;48.476;8.310;2024-03-06T01:34:19;91196.22;;;2.62;100.00
53300;BME280;39187;48.476;8.310;2024-03-06T01:36:45;91192.34;;;2.49;100.00
53300;BME280;39187;48.476;8.310;2024-03-06T01:39:11;91191.97;;;2.47;100.00
53300;BME280;39187;48.476;8.310;2024-03-06T01:41:36;91191.00;;;2.22;100.00
53300;BME280;39187;48.476;8.310;2024-03-06T01:44:02;91189.34;;;2.07;100.00
53300;BME280;39187;48.476;8.310;2024-03-06T01:46:29;91197.03;;;2.26;100.00
53300;BME280;39187;48.476;8.310;2024-03-06T01:48:55;91185.88;;;2.36;100.00
53300;BME280;39187;48.476;8.310;2024-03-06T01:51:21;91191.91;;;2.40;100.00
53300;BME280;39187;48.476;8.310;2024-03-06T01:53:47;91183.59;;;2.34;100.00
53300;BME280;39187;48.476;8.310;2024-03-06T01:56:13;91191.56;;;2.45;100.00
53300;BME280;39187;48.476;8.310;2024-03-06T01:58:47;91191.00;;;2.25;100.00
53300;BME280;39187;48.476;8.310;2024-03-06T02:01:13;91191.56;;;2.45;100.00
53300;BME280;39187;48.476;8.310;2024-03-06T02:03:39;91183.25;;;2.36;100.00
53300;BME280;39187;48.476;8.310;2024-03-06T02:06:05;91187.47;;;2.51;100.00
53300;BME280;39187;48.476;8.310;2024-03-06T02:08:31;91185.25;;;2.53;100.00
53300;BME280;39187;48.476;8.310;2024-03-06T02:10:58;91185.66;;;2.55;100.00
53300;BME280;39187;48.476;8.310;2024-03-06T02:13:27;91190.91;;;2.55;100.00
53300;BME280;39187;48.476;8.310;2024-03-06T02:15:53;91191.66;;;2.56;100.00
53300;BME280;39187;48.476;8.310;2024-03-06T02:18:18;91192.41;;;2.56;100.00
53300;BME280;39187;48.476;8.310;2024-03-06T02:20:44;91186.66;;;2.43;100.00
53300;BME280;39187;48.476;8.310;2024-03-06T02:23:11;91177.38;;;2.53;100.00
53300;BME280;39187;48.476;8.310;2024-03-06T02:25:36;91178.91;;;2.58;100.00
53300;BME280;39187;48.476;8.310;2024-03-06T02:28:02;91184.50;;;2.56;100.00
53300;BME280;39187;48.476;8.310;2024-03-06T02:30:27;91186.03;;;2.57;100.00
53300;BME280;39187;48.476;8.310;2024-03-06T02:32:56;91194.31;;;2.59;100.00
53300;BME280;39187;48.476;8.310;2024-03-06T02:35:21;91193.16;;;2.57;100.00
53300;BME280;39187;48.476;8.310;2024-03-06T02:37:47;91192.38;;;2.53;100.00
53300;BME280;39187;48.476;8.310;2024-03-06T02:40:12;91195.41;;;2.55;100.00
53300;BME280;39187;48.476;8.310;2024-03-06T02:42:38;91191.66;;;2.56;100.00
53300;BME280;39187;48.476;8.310;2024-03-06T02:45:07;91192.38;;;2.53;100.00
53300;BME280;39187;48.476;8.310;2024-03-06T02:47:34;91190.16;;;2.55;100.00
53300;BME280;39187;48.476;8.310;2024-03-06T02:49:59;91193.16;;;2.57;100.00
53300;BME280;39187;48.476;8.310;2024-03-06T02:52:25;91192.84;;;2.62;100.00
53300;BME280;39187;48.476;8.310;2024-03-06T02:54:50;91187.88;;;2.53;100.00
53300;BME280;39187;48.476;8.310;2024-03-06T02:57:15;91183.78;;;2.56;100.00
53300;BME280;39187;48.476;8.310;2024-03-06T02:59:42;91186.44;;;2.59;100.00
53300;BME280;39187;48.476;8.310;2024-03-06T03:02:08;91180.06;;;2.60;100.00
53300;BME280;39187;48.476;8.310;2024-03-06T03:04:33;91183.38;;;2.54;100.00
53300;BME280;39187;48.476;8.310;2024-03-06T03:06:59;91185.28;;;2.57;100.00
53300;BME280;39187;48.476;8.310;2024-03-06T03:09:25;91181.94;;;2.60;100.00
53300;BME280;39187;48.476;8.310;2024-03-06T03:11:50;91186.38;;;2.52;100.00
53300;BME280;39187;48.476;8.310;2024-03-06T03:14:16;91183.09;;;2.62;100.00
53300;BME280;39187;48.476;8.310;2024-03-06T03:16:41;91181.94;;;2.60;100.00
53300;BME280;39187;48.476;8.310;2024-03-06T03:19:07;91187.94;;;2.64;100.00
53300;BME280;39187;48.476;8.310;2024-03-06T03:21:34;91190.09;;;2.51;100.00
53300;BME280;39187;48.476;8.310;2024-03-06T03:23:59;91190.31;;;2.32;100.00
53300;BME280;39187;48.476;8.310;2024-03-06T03:26:25;91192.72;;;2.51;100.00
53300;BME280;39187;48.476;8.310;2024-03-06T03:28:51;91189.41;;;2.58;100.00
53300;BME280;39187;48.476;8.310;2024-03-06T03:31:16;91195.06;;;2.60;100.00
53300;BME280;39187;48.476;8.310;2024-03-06T03:33:42;91190.91;;;2.59;100.00
53300;BME280;39187;48.476;8.310;2024-03-06T03:36:08;91193.59;;;2.62;100.00
53300;BME280;39187;48.476;8.310;2024-03-06T03:38:36;91193.88;;;2.54;100.00
53300;BME280;39187;48.476;8.310;2024-03-06T03:41:12;91195.84;;;2.64;100.00
53300;BME280;39187;48.476;8.310;2024-03-06T03:43:41;91189.09;;;2.66;100.00
53300;BME280;39187;48.476;8.310;2024-03-06T03:46:07;91191.00;;;2.69;100.00
53300;BME280;39187;48.476;8.310;2024-03-06T03:48:33;91199.63;;;2.70;100.00
53300;BME280;39187;48.476;8.310;2024-03-06T03:51:02;91197.00;;;2.66;100.00
53300;BME280;39187;48.476;8.310;2024-03-06T03:53:29;91206.81;;;2.73;100.00
53300;BME280;39187;48.476;8.310;2024-03-06T03:55:55;91208.28;;;2.70;100.00
53300;BME280;39187;48.476;8.310;2024-03-06T03:58:20;91203.75;;;2.67;100.00
53300;BME280;39187;48.476;8.310;2024-03-06T04:00:46;91206.75;;;2.69;100.00
53300;BME280;39187;48.476;8.310;2024-03-06T04:03:11;91204.50;;;2.68;100.00
53300;BME280;39187;48.476;8.310;2024-03-06T04:05:37;91209.72;;;2.61;100.00
53300;BME280;39187;48.476;8.310;2024-03-06T04:08:03;91210.13;;;2.66;100.00
53300;BME280;39187;48.476;8.310;2024-03-06T04:10:31;91206.75;;;2.69;100.00
53300;BME280;39187;48.476;8.310;2024-03-06T04:12:56;91210.81;;;2.60;100.00
53300;BME280;39187;48.476;8.310;2024-03-06T04:15:23;91210.91;;;2.70;100.00
53300;BME280;39187;48.476;8.310;2024-03-06T04:17:50;91219.13;;;2.65;100.00
53300;BME280;39187;48.476;8.310;2024-03-06T04:20:16;91214.63;;;2.69;100.00
53300;BME280;39187;48.476;8.310;2024-03-06T04:22:41;91216.50;;;2.69;100.00
53300;BME280;39187;48.476;8.310;2024-03-06T04:25:07;91215.78;;;2.72;100.00
53300;BME280;39187;48.476;8.310;2024-03-06T04:27:33;91223.25;;;2.66;100.00
53300;BME280;39187;48.476;8.310;2024-03-06T04:29:59;91227.34;;;2.60;100.00
53300;BME280;39187;48.476;8.310;2024-03-06T04:32:24;91226.19;;;2.58;100.00
53300;BME280;39187;48.476;8.310;2024-03-06T04:34:50;91225.50;;;2.64;100.00
53300;BME280;39187;48.476;8.310;2024-03-06T04:37:15;91226.59;;;2.63;100.00
53300;BME280;39187;48.476;8.310;2024-03-06T04:39:41;91230.53;;;2.39;100.00
53300;BME280;39187;48.476;8.310;2024-03-06T04:42:06;91226.47;;;2.46;100.00
53300;BME280;39187;48.476;8.310;2024-03-06T04:44:36;91229.91;;;2.53;100.00
53300;BME280;39187;48.476;8.310;2024-03-06T04:47:02;91234.06;;;2.58;100.00
53300;BME280;39187;48.476;8.310;2024-03-06T04:49:27;91233.03;;;2.69;100.00
53300;BME280;39187;48.476;8.310;2024-03-06T04:51:53;91237.09;;;2.60;100.00
53300;BME280;39187;48.476;8.310;2024-03-06T04:54:19;91240.53;;;2.67;100.00
53300;BME280;39187;48.476;8.310;2024-03-06T04:56:44;91235.66;;;2.66;100.00
53300;BME280;39187;48.476;8.310;2024-03-06T04:59:10;91234.59;;;2.74;100.00
53300;BME280;39187;48.476;8.310;2024-03-06T05:01:35;91249.13;;;2.64;100.00
53300;BME280;39187;48.476;8.310;2024-03-06T05:04:01;91247.63;;;2.63;100.00
53300;BME280;39187;48.476;8.310;2024-03-06T05:06:26;91246.97;;;2.73;100.00
53300;BME280;39187;48.476;8.310;2024-03-06T05:08:52;91248.44;;;2.67;100.00
53300;BME280;39187;48.476;8.310;2024-03-06T05:11:17;91253.97;;;2.55;100.00
53300;BME280;39187;48.476;8.310;2024-03-06T05:13:43;91255.19;;;2.68;100.00
53300;BME280;39187;48.476;8.310;2024-03-06T05:16:08;91263.03;;;2.65;100.00
53300;BME280;39187;48.476;8.310;2024-03-06T05:18:34;91261.84;;;2.55;100.00
53300;BME280;39187;48.476;8.310;2024-03-06T05:21:00;91264.56;;;2.69;100.00
53300;BME280;39187;48.476;8.310;2024-03-06T05:23:26;91263.72;;;2.58;100.00
53300;BME280;39187;48.476;8.310;2024-03-06T05:25:52;91273.53;;;2.65;100.00
53300;BME280;39187;48.476;8.310;2024-03-06T05:28:17;91269.41;;;2.64;100.00
53300;BME280;39187;48.476;8.310;2024-03-06T05:30:43;91274.69;;;2.67;100.00
53300;BME280;39187;48.476;8.310;2024-03-06T05:33:08;91282.03;;;2.48;100.00
53300;BME280;39187;48.476;8.310;2024-03-06T05:35:34;91275.78;;;2.63;100.00
53300;BME280;39187;48.476;8.310;2024-03-06T05:37:59;91270.13;;;2.61;100.00
53300;BME280;39187;48.476;8.310;2024-03-06T05:40:25;91282.03;;;2.51;100.00
53300;BME280;39187;48.476;8.310;2024-03-06T05:42:51;91284.34;;;2.56;100.00
53300;BME280;39187;48.476;8.310;2024-03-06T05:45:16;91278.78;;;2.61;100.00
53300;BME280;39187;48.476;8.310;2024-03-06T05:47:42;91288.94;;;2.66;100.00
53300;BME280;39187;48.476;8.310;2024-03-06T05:50:08;91294.16;;;2.63;100.00
53300;BME280;39187;48.476;8.310;2024-03-06T05:52:36;91299.03;;;2.61;100.00
53300;BME280;39187;48.476;8.310;2024-03-06T05:55:02;91303.13;;;2.58;100.00
53300;BME280;39187;48.476;8.310;2024-03-06T05:57:28;91306.50;;;2.55;100.00
53300;BME280;39187;48.476;8.310;2024-03-06T05:59:53;91306.19;;;2.64;100.00
53300;BME280;39187;48.476;8.310;2024-03-06T06:02:20;91304.66;;;2.59;100.00
53300;BME280;39187;48.476;8.310;2024-03-06T06:04:46;91308.47;;;2.69;100.00
53300;BME280;39187;48.476;8.310;2024-03-06T06:07:11;91314.19;;;2.74;100.00
53300;BME280;39187;48.476;8.310;2024-03-06T06:09:37;91313.97;;;2.53;100.00
53300;BME280;39187;48.476;8.310;2024-03-06T06:12:03;91315.50;;;2.54;100.00
53300;BME280;39187;48.476;8.310;2024-03-06T06:14:28;91320.31;;;2.49;100.00
53300;BME280;39187;48.476;8.310;2024-03-06T06:16:56;91318.56;;;2.63;100.00
53300;BME280;39187;48.476;8.310;2024-03-06T06:19:21;91321.88;;;2.57;100.00
53300;BME280;39187;48.476;8.310;2024-03-06T06:21:47;91322.75;;;2.68;100.00
53300;BME280;39187;48.476;8.310;2024-03-06T06:24:13;91328.66;;;2.58;100.00
53300;BME280;39187;48.476;8.310;2024-03-06T06:26:39;91326.88;;;2.69;100.00
53300;BME280;39187;48.476;8.310;2024-03-06T06:29:05;91332.94;;;2.73;100.00
53300;BME280;39187;48.476;8.310;2024-03-06T06:31:31;91332.94;;;2.73;100.00
53300;BME280;39187;48.476;8.310;2024-03-06T06:33:56;91336.69;;;2.75;100.00
53300;BME280;39187;48.476;8.310;2024-03-06T06:36:22;91337.38;;;2.69;100.00
53300;BME280;39187;48.476;8.310;2024-03-06T06:38:48;91352.03;;;2.70;100.00
53300;BME280;39187;48.476;8.310;2024-03-06T06:41:14;91350.59;;;2.76;100.00
53300;BME280;39187;48.476;8.310;2024-03-06T06:43:40;91342.34;;;2.77;100.00
53300;BME280;39187;48.476;8.310;2024-03-06T06:46:07;91346.13;;;2.80;100.00
53300;BME280;39187;48.476;8.310;2024-03-06T06:48:33;91355.56;;;2.85;100.00
53300;BME280;39187;48.476;8.310;2024-03-06T06:50:59;91345.34;;;2.76;100.00
53300;BME280;39187;48.476;8.310;2024-03-06T06:53:31;91349.84;;;2.75;100.00
53300;BME280;39187;48.476;8.310;2024-03-06T06:55:58;91344.88;;;2.67;100.00
53300;BME280;39187;48.476;8.310;2024-03-06T06:58:24;91343.47;;;2.76;100.00
53300;BME280;39187;48.476;8.310;2024-03-06T07:00:52;91357.34;;;2.73;100.00
53300;BME280;39187;48.476;8.310;2024-03-06T07:03:18;91347.50;;;2.67;100.00
53300;BME280;39187;48.476;8.310;2024-03-06T07:05:43;91358.41;;;2.69;100.00
53300;BME280;39187;48.476;8.310;2024-03-06T07:08:09;91359.47;;;2.61;100.00
53300;BME280;39187;48.476;8.310;2024-03-06T07:10:34;91356.53;;;2.69;100.00
53300;BME280;39187;48.476;8.310;2024-03-06T07:13:02;91362.94;;;2.72;100.00
53300;BME280;39187;48.476;8.310;2024-03-06T07:15:28;91363.34;;;2.74;100.00
53300;BME280;39187;48.476;8.310;2024-03-06T07:17:54;91359.28;;;2.80;100.00
53300;BME280;39187;48.476;8.310;2024-03-06T07:20:19;91366.34;;;2.76;100.00
53300;BME280;39187;48.476;8.310;2024-03-06T07:22:45;91365.03;;;2.56;100.00
53300;BME280;39187;48.476;8.310;2024-03-06T07:25:11;91363.34;;;2.74;100.00
53300;BME280;39187;48.476;8.310;2024-03-06T07:27:36;91367.88;;;2.77;100.00
53300;BME280;39187;48.476;8.310;2024-03-06T07:30:02;91365.25;;;2.77;100.00
53300;BME280;39187;48.476;8.310;2024-03-06T07:32:27;91370.50;;;2.77;100.00
53300;BME280;39187;48.476;8.310;2024-03-06T07:34:53;91376.78;;;2.69;100.00
53300;BME280;39187;48.476;8.310;2024-03-06T07:37:18;91373.13;;;2.77;100.00
53300;BME280;39187;48.476;8.310;2024-03-06T07:39:44;91373.88;;;2.77;100.00
53300;BME280;39187;48.476;8.310;2024-03-06T07:42:11;91377.59;;;2.73;100.00
53300;BME280;39187;48.476;8.310;2024-03-06T07:44:36;91375.44;;;2.82;100.00
53300;BME280;39187;48.476;8.310;2024-03-06T07:47:02;91379.81;;;2.71;100.00
53300;BME280;39187;48.476;8.310;2024-03-06T07:49:28;91381.41;;;2.79;100.00
53300;BME280;39187;48.476;8.310;2024-03-06T07:51:54;91380.16;;;2.66;100.00
53300;BME280;39187;48.476;8.310;2024-03-06T07:54:19;91391.44;;;2.66;100.00
53300;BME280;39187;48.476;8.310;2024-03-06T07:56:45;91387.38;;;2.76;100.00
53300;BME280;39187;48.476;8.310;2024-03-06T07:59:10;91387.75;;;2.74;100.00
53300;BME280;39187;48.476;8.310;2024-03-06T08:01:38;91391.50;;;2.73;100.00
53300;BME280;39187;48.476;8.310;2024-03-06T08:04:04;91400.56;;;2.79;100.00
53300;BME280;39187;48.476;8.310;2024-03-06T08:06:29;91393.13;;;2.89;100.00
53300;BME280;39187;48.476;8.310;2024-03-06T08:08:58;91405.66;;;3.02;100.00
53300;BME280;39187;48.476;8.310;2024-03-06T08:11:24;91401.22;;;3.06;100.00
53300;BME280;39187;48.476;8.310;2024-03-06T08:13:50;91409.56;;;3.15;100.00
53300;BME280;39187;48.476;8.310;2024-03-06T08:16:15;91406.50;;;3.10;100.00
53300;BME280;39187;48.476;8.310;2024-03-06T08:18:42;91412.91;;;3.12;100.00
53300;BME280;39187;48.476;8.310;2024-03-06T08:21:08;91413.44;;;3.29;100.00
53300;BME280;39187;48.476;8.310;2024-03-06T08:23:34;91408.16;;;3.29;100.00
53300;BME280;39187;48.476;8.310;2024-03-06T08:25:59;91408.22;;;3.32;100.00
53300;BME280;39187;48.476;8.310;2024-03-06T08:28:25;91413.06;;;3.30;100.00
53300;BME280;39187;48.476;8.310;2024-03-06T08:30:51;91416.88;;;3.33;100.00
53300;BME280;39187;48.476;8.310;2024-03-06T08:33:17;91419.22;;;3.48;100.00
53300;BME280;39187;48.476;8.310;2024-03-06T08:35:43;91413.63;;;3.53;100.00
53300;BME280;39187;48.476;8.310;2024-03-06T08:38:08;91417.28;;;3.42;100.00
53300;BME280;39187;48.476;8.310;2024-03-06T08:40:34;91420.38;;;3.51;100.00
53300;BME280;39187;48.476;8.310;2024-03-06T08:43:00;91426.81;;;3.57;100.00
53300;BME280;39187;48.476;8.310;2024-03-06T08:45:25;91426.72;;;3.46;100.00
53300;BME280;39187;48.476;8.310;2024-03-06T08:47:51;91420.00;;;3.49;100.00
53300;BME280;39187;48.476;8.310;2024-03-06T08:50:19;91429.75;;;3.45;100.00
53300;BME280;39187;48.476;8.310;2024-03-06T08:52:45;91428.84;;;3.30;100.00
53300;BME280;39187;48.476;8.310;2024-03-06T08:55:11;91424.91;;;3.50;100.00
53300;BME280;39187;48.476;8.310;2024-03-06T08:57:36;91434.97;;;3.41;100.00
53300;BME280;39187;48.476;8.310;2024-03-06T09:00:06;91437.28;;;3.50;100.00
53300;BME280;39187;48.476;8.310;2024-03-06T09:02:36;91438.63;;;3.33;100.00
53300;BME280;39187;48.476;8.310;2024-03-06T09:05:01;91440.31;;;3.52;100.00
53300;BME280;39187;48.476;8.310;2024-03-06T09:07:29;91440.34;;;3.55;100.00
53300;BME280;39187;48.476;8.310;2024-03-06T09:09:55;91441.91;;;3.63;100.00
53300;BME280;39187;48.476;8.310;2024-03-06T09:12:20;91441.19;;;3.67;100.00
53300;BME280;39187;48.476;8.310;2024-03-06T09:14:46;91442.69;;;3.68;100.00
53300;BME280;39187;48.476;8.310;2024-03-06T09:17:11;91438.19;;;3.68;100.00
53300;BME280;39187;48.476;8.310;2024-03-06T09:19:40;91440.88;;;3.75;100.00
53300;BME280;39187;48.476;8.310;2024-03-06T09:22:06;91446.19;;;3.82;100.00
53300;BME280;39187;48.476;8.310;2024-03-06T09:24:32;91445.53;;;3.96;100.00
53300;BME280;39187;48.476;8.310;2024-03-06T09:26:58;91452.88;;;3.73;100.00
53300;BME280;39187;48.476;8.310;2024-03-06T09:29:23;91444.69;;;3.85;100.00
53300;BME280;39187;48.476;8.310;2024-03-06T09:31:49;91439.41;;;3.81;100.00
53300;BME280;39187;48.476;8.310;2024-03-06T09:34:14;91450.06;;;3.99;100.00
53300;BME280;39187;48.476;8.310;2024-03-06T09:36:49;91450.47;;;4.01;100.00
53300;BME280;39187;48.476;8.310;2024-03-06T09:39:17;91454.97;;;4.00;100.00
53300;BME280;39187;48.476;8.310;2024-03-06T09:41:49;91458.00;;;4.06;100.00
53300;BME280;39187;48.476;8.310;2024-03-06T09:44:16;91459.94;;;4.16;100.00
53300;BME280;39187;48.476;8.310;2024-03-06T09:46:45;91451.38;;;4.26;100.00
53300;BME280;39187;48.476;8.310;2024-03-06T09:49:13;91463.47;;;4.34;100.00
53300;BME280;39187;48.476;8.310;2024-03-06T09:51:42;91461.50;;;4.21;100.00
53300;BME280;39187;48.476;8.310;2024-03-06T09:54:11;91460.88;;;4.41;100.00
53300;BME280;39187;48.476;8.310;2024-03-06T09:56:37;91456.91;;;4.11;100.00
53300;BME280;39187;48.476;8.310;2024-03-06T09:59:02;91457.03;;;4.32;100.00
53300;BME280;39187;48.476;8.310;2024-03-06T10:01:29;91462.91;;;4.08;100.00
53300;BME280;39187;48.476;8.310;2024-03-06T10:03:56;91466.81;;;4.28;100.00
53300;BME280;39187;48.476;8.310;2024-03-06T10:06:22;91459.69;;;4.32;100.00
53300;BME280;39187;48.476;8.310;2024-03-06T10:08:47;91462.72;;;4.37;100.00
53300;BME280;39187;48.476;8.310;2024-03-06T10:11:15;91466.19;;;4.52;100.00
53300;BME280;39187;48.476;8.310;2024-03-06T10:13:42;91470.34;;;4.53;100.00
53300;BME280;39187;48.476;8.310;2024-03-06T10:16:07;91466.56;;;4.47;100.00
53300;BME280;39187;48.476;8.310;2024-03-06T10:18:36;91461.84;;;4.16;100.00
53300;BME280;39187;48.476;8.310;2024-03-06T10:21:04;91466.06;;;4.31;100.00
53300;BME280;39187;48.476;8.310;2024-03-06T10:23:31;91468.28;;;4.22;100.00
53300;BME280;39187;48.476;8.310;2024-03-06T10:25:57;91469.91;;;4.44;100.00
53300;BME280;39187;48.476;8.310;2024-03-06T10:28:23;91469.88;;;4.37;100.00
53300;BME280;39187;48.476;8.310;2024-03-06T10:30:50;91469.91;;;4.40;100.00
53300;BME280;39187;48.476;8.310;2024-03-06T10:33:17;91474.06;;;4.45;100.00
53300;BME280;39187;48.476;8.310;2024-03-06T10:35:45;91463.44;;;4.27;100.00
53300;BME280;39187;48.476;8.310;2024-03-06T10:38:12;91460.41;;;4.25;100.00
53300;BME280;39187;48.476;8.310;2024-03-06T10:40:40;91467.59;;;4.35;100.00
53300;BME280;39187;48.476;8.310;2024-03-06T10:43:08;91469.81;;;4.30;100.00
53300;BME280;39187;48.476;8.310;2024-03-06T10:45:49;91473.22;;;4.30;100.00
53300;BME280;39187;48.476;8.310;2024-03-06T10:48:17;91464.59;;;4.33;100.00
53300;BME280;39187;48.476;8.310;2024-03-06T10:50:44;91466.03;;;4.24;100.00
53300;BME280;39187;48.476;8.310;2024-03-06T10:53:12;91460.44;;;4.36;100.00
53300;BME280;39187;48.476;8.310;2024-03-06T10:55:38;91463.47;;;4.34;100.00
53300;BME280;39187;48.476;8.310;2024-03-06T10:58:05;91466.41;;;4.26;100.00
53300;BME280;39187;48.476;8.310;2024-03-06T11:00:38;91470.56;;;4.27;100.00
53300;BME280;39187;48.476;8.310;2024-03-06T11:03:05;91473.25;;;4.34;100.00
53300;BME280;39187;48.476;8.310;2024-03-06T11:05:37;91475.09;;;4.30;100.00
53300;BME280;39187;48.476;8.310;2024-03-06T11:08:07;91472.94;;;4.50;100.00
53300;BME280;39187;48.476;8.310;2024-03-06T11:10:37;91470.16;;;4.21;100.00
53300;BME280;39187;48.476;8.310;2024-03-06T11:13:08;91468.75;;;4.38;100.00
53300;BME280;39187;48.476;8.310;2024-03-06T11:15:34;91475.22;;;4.48;100.00
53300;BME280;39187;48.476;8.310;2024-03-06T11:24:13;91472.34;;;4.12;100.00
53300;BME280;39187;48.476;8.310;2024-03-06T11:26:46;91477.41;;;4.38;100.00
53300;BME280;39187;48.476;8.310;2024-03-06T11:29:15;91474.31;;;4.22;100.00
53300;BME280;39187;48.476;8.310;2024-03-06T11:31:57;91476.44;;;4.02;100.00
53300;BME280;39187;48.476;8.310;2024-03-06T11:34:23;91475.09;;;4.26;100.00
53300;BME280;39187;48.476;8.310;2024-03-06T11:36:53;91486.44;;;4.37;100.00
53300;BME280;39187;48.476;8.310;2024-03-06T11:39:19;91481.47;;;4.22;100.00
53300;BME280;39187;48.476;8.310;2024-03-06T11:41:49;91478.16;;;4.39;100.00
53300;BME280;39187;48.476;8.310;2024-03-06T11:44:20;91484.88;;;4.26;100.00
53300;BME280;39187;48.476;8.310;2024-03-06T11:47:00;91479.25;;;4.31;100.00
53300;BME280;39187;48.476;8.310;2024-03-06T11:49:28;91479.94;;;4.24;100.00
53300;BME280;39187;48.476;8.310;2024-03-06T11:52:07;91484.41;;;4.17;100.00
53300;BME280;39187;48.476;8.310;2024-03-06T11:54:33;91479.53;;;4.15;100.00
53300;BME280;39187;48.476;8.310;2024-03-06T11:57:01;91475.81;;;4.23;100.00
53300;BME280;39187;48.476;8.310;2024-03-06T11:59:29;91484.81;;;4.15;100.00
53300;BME280;39187;48.476;8.310;2024-03-06T12:01:59;91484.00;;;4.11;100.00
53300;BME280;39187;48.476;8.310;2024-03-06T12:04:27;91484.50;;;4.31;100.00
53300;BME280;39187;48.476;8.310;2024-03-06T12:06:56;91471.94;;;4.10;100.00
53300;BME280;39187;48.476;8.310;2024-03-06T12:09:22;91476.28;;;3.85;100.00
53300;BME280;39187;48.476;8.310;2024-03-06T12:11:47;91474.56;;;4.07;100.00
53300;BME280;39187;48.476;8.310;2024-03-06T12:14:14;91481.00;;;4.13;100.00
53300;BME280;39187;48.476;8.310;2024-03-06T12:16:42;91475.28;;;4.00;100.00
53300;BME280;39187;48.476;8.310;2024-03-06T12:19:08;91471.88;;;3.96;100.00
53300;BME280;39187;48.476;8.310;2024-03-06T12:21:35;91473.09;;;4.09;100.00
53300;BME280;39187;48.476;8.310;2024-03-06T12:24:18;91481.59;;;3.92;100.00
53300;BME280;39187;48.476;8.310;2024-03-06T12:26:44;91477.50;;;3.98;100.00
53300;BME280;39187;48.476;8.310;2024-03-06T12:29:11;91474.56;;;4.07;100.00
53300;BME280;39187;48.476;8.310;2024-03-06T12:31:41;91468.25;;;4.18;100.00
53300;BME280;39187;48.476;8.310;2024-03-06T12:34:07;91482.78;;;3.98;100.00
53300;BME280;39187;48.476;8.310;2024-03-06T12:36:34;91471.63;;;4.15;100.00
53300;BME280;39187;48.476;8.310;2024-03-06T12:39:01;91469.75;;;4.19;100.00
53300;BME280;39187;48.476;8.310;2024-03-06T12:41:27;91468.97;;;4.12;100.00
53300;BME280;39187;48.476;8.310;2024-03-06T12:43:54;91469.00;;;4.15;100.00
53300;BME280;39187;48.476;8.310;2024-03-06T12:46:21;91476.13;;;4.15;100.00
53300;BME280;39187;48.476;8.310;2024-03-06T12:48:47;91476.50;;;4.13;100.00
53300;BME280;39187;48.476;8.310;2024-03-06T12:51:12;91476.56;;;4.24;100.00
53300;BME280;39187;48.476;8.310;2024-03-06T12:53:37;91474.34;;;4.29;100.00
53300;BME280;39187;48.476;8.310;2024-03-06T12:56:03;91471.28;;;4.24;100.00
53300;BME280;39187;48.476;8.310;2024-03-06T12:58:29;91473.59;;;4.29;100.00
53300;BME280;39187;48.476;8.310;2024-03-06T13:01:00;91469.75;;;4.19;100.00
53300;BME280;39187;48.476;8.310;2024-03-06T13:03:27;91455.78;;;4.12;100.00